createdAt,value
2018-11-20T00:01:04.297Z,0.40
2018-11-20T00:03:59.534Z,0.50
2018-11-20T00:07:00.366Z,0.50
2018-11-20T00:09:52.325Z,0.40
2018-11-20T00:12:46.960Z,0.40
2018-11-20T00:15:48.192Z,0.40
2018-11-20T00:18:37.470Z,0.50
2018-11-20T00:21:19.457Z,0.50
2018-11-20T00:24:06.851Z,0.50
2018-11-20T00:27:13.857Z,0.50
2018-11-20T00:30:01.456Z,0.40
2018-11-20T00:32:59.141Z,0.40
2018-11-20T00:35:52.976Z,0.40
2018-11-20T00:38:56.414Z,0.40
2018-11-20T00:41:35.140Z,0.40
2018-11-20T00:44:22.987Z,0.40
2018-11-20T00:47:10.625Z,0.40
2018-11-20T00:50:02.783Z,0.40
2018-11-20T00:52:50.108Z,0.50
2018-11-20T00:56:16.493Z,0.40
2018-11-20T00:59:04.969Z,0.40
2018-11-20T01:01:47.265Z,0.40
2018-11-20T01:04:38.868Z,0.30
2018-11-20T01:07:33.488Z,0.30
2018-11-20T01:10:21.168Z,0.40
2018-11-20T01:13:18.344Z,0.30
2018-11-20T01:16:05.094Z,0.40
2018-11-20T01:18:54.985Z,0.30
2018-11-20T01:21:52.090Z,0.40
2018-11-20T01:24:39.267Z,0.40
2018-11-20T01:27:45.695Z,0.40
2018-11-20T01:30:43.143Z,0.40
2018-11-20T01:33:20.719Z,0.40
2018-11-20T01:36:07.958Z,0.40
2018-11-20T01:39:04.556Z,0.40
2018-11-20T01:42:02.246Z,0.40
2018-11-20T01:44:46.738Z,0.40
2018-11-20T01:47:43.942Z,0.30
2018-11-20T01:50:38.321Z,0.30
2018-11-20T01:53:41.733Z,0.30
2018-11-20T01:56:28.776Z,0.30
2018-11-20T01:59:32.314Z,0.30
2018-11-20T02:02:19.346Z,0.30
2018-11-20T02:05:10.369Z,0.30
2018-11-20T02:07:57.765Z,0.30
2018-11-20T02:10:51.807Z,0.30
2018-11-20T02:14:19.287Z,0.40
2018-11-20T02:17:25.337Z,0.40
2018-11-20T02:20:19.579Z,0.40
2018-11-20T02:23:07.024Z,0.40
2018-11-20T02:26:01.287Z,0.30
2018-11-20T02:28:48.484Z,0.30
2018-11-20T02:31:35.617Z,0.40
2018-11-20T02:34:18.012Z,0.40
2018-11-20T02:37:05.868Z,0.30
2018-11-20T02:39:52.087Z,0.30
2018-11-20T02:42:45.796Z,0.30
2018-11-20T02:45:33.153Z,0.30
2018-11-20T02:48:21.759Z,0.20
2018-11-20T02:51:09.754Z,0.30
2018-11-20T02:53:57.251Z,0.30
2018-11-20T02:56:45.642Z,0.30
2018-11-20T02:59:32.438Z,0.30
2018-11-20T03:02:36.500Z,0.30
2018-11-20T03:05:24.620Z,0.30
2018-11-20T03:08:25.767Z,0.40
2018-11-20T03:11:19.260Z,0.30
2018-11-20T03:14:02.397Z,0.30
2018-11-20T03:16:50.068Z,0.30
2018-11-20T03:19:32.037Z,0.30
2018-11-20T03:22:29.921Z,0.30
2018-11-20T03:25:18.349Z,0.40
2018-11-20T03:28:13.549Z,0.40
2018-11-20T03:31:31.895Z,0.40
2018-11-20T03:34:29.807Z,0.40
2018-11-20T03:37:29.146Z,0.40
2018-11-20T03:40:29.989Z,0.40
2018-11-20T03:43:23.496Z,0.40
2018-11-20T03:46:31.426Z,0.40
2018-11-20T03:49:19.059Z,0.40
2018-11-20T03:51:56.446Z,0.40
2018-11-20T03:54:50.966Z,0.40
2018-11-20T03:57:57.680Z,0.40
2018-11-20T04:00:57.879Z,0.40
2018-11-20T04:03:43.002Z,0.40
2018-11-20T04:06:34.404Z,0.40
2018-11-20T04:09:23.009Z,0.40
2018-11-20T04:12:10.231Z,0.40
2018-11-20T04:14:57.022Z,0.40
2018-11-20T04:17:45.482Z,0.40
2018-11-20T04:20:33.861Z,0.40
2018-11-20T04:23:28.889Z,0.40
2018-11-20T04:26:15.982Z,0.40
2018-11-20T04:29:13.420Z,0.40
2018-11-20T04:32:11.576Z,0.30
2018-11-20T04:34:55.429Z,0.30
2018-11-20T04:37:49.980Z,0.30
2018-11-20T04:40:38.409Z,0.30
2018-11-20T04:43:45.206Z,0.40
2018-11-20T04:46:40.040Z,0.30
2018-11-20T04:49:25.288Z,0.40
2018-11-20T04:52:12.774Z,0.40
2018-11-20T04:55:01.532Z,0.30
2018-11-20T04:57:48.847Z,0.40
2018-11-20T05:00:36.620Z,0.30
2018-11-20T05:03:24.707Z,0.30
2018-11-20T05:06:07.633Z,0.30
2018-11-20T05:08:47.682Z,0.30
2018-11-20T05:11:34.980Z,0.20
2018-11-20T05:14:26.167Z,0.30
2018-11-20T05:17:21.274Z,0.20
2018-11-20T05:20:10.083Z,0.20
2018-11-20T05:22:57.328Z,0.20
2018-11-20T05:25:44.640Z,0.30
2018-11-20T05:28:39.688Z,0.20
2018-11-20T05:31:22.052Z,0.10
2018-11-20T05:34:15.927Z,0.20
2018-11-20T05:37:01.286Z,0.20
2018-11-20T05:39:48.171Z,0.10
2018-11-20T05:42:54.881Z,0.10
2018-11-20T05:45:42.385Z,0.10
2018-11-20T05:48:37.031Z,0.10
2018-11-20T05:51:16.186Z,0.20
2018-11-20T05:53:57.628Z,0.20
2018-11-20T05:56:46.550Z,0.20
2018-11-20T05:59:38.674Z,0.20
2018-11-20T06:02:33.249Z,0.20
2018-11-20T06:05:18.519Z,0.10
2018-11-20T06:08:18.890Z,0.00
2018-11-20T06:11:10.542Z,0.00
2018-11-20T06:14:02.495Z,0.10
2018-11-20T06:16:50.026Z,0.10
2018-11-20T06:19:38.826Z,0.10
2018-11-20T06:22:25.812Z,0.10
2018-11-20T06:25:19.834Z,0.10
2018-11-20T06:28:23.875Z,0.10
2018-11-20T06:31:27.733Z,0.00
2018-11-20T06:34:14.694Z,0.10
2018-11-20T06:37:11.396Z,0.10
2018-11-20T06:39:57.216Z,0.10
2018-11-20T06:42:46.032Z,0.10
2018-11-20T06:45:35.853Z,0.10
2018-11-20T06:48:43.674Z,0.20
2018-11-20T06:51:47.289Z,0.20
2018-11-20T06:54:34.435Z,0.00
2018-11-20T06:57:32.355Z,0.10
2018-11-20T07:00:20.239Z,0.10
2018-11-20T07:03:11.441Z,0.10
2018-11-20T07:06:00.349Z,0.10
2018-11-20T07:09:01.103Z,0.20
2018-11-20T07:11:55.436Z,0.20
2018-11-20T07:14:46.814Z,0.20
2018-11-20T07:17:37.657Z,0.20
2018-11-20T07:20:33.137Z,0.30
2018-11-20T07:23:20.609Z,0.30
2018-11-20T07:26:22.300Z,0.30
2018-11-20T07:29:23.332Z,0.30
2018-11-20T07:32:10.696Z,0.30
2018-11-20T07:34:58.022Z,0.30
2018-11-20T07:37:45.564Z,0.30
2018-11-20T07:40:39.749Z,0.40
2018-11-20T07:43:29.769Z,0.40
2018-11-20T07:46:23.993Z,0.40
2018-11-20T07:49:21.872Z,0.50
2018-11-20T07:52:28.663Z,0.50
2018-11-20T07:55:22.262Z,0.50
2018-11-20T07:58:09.681Z,0.50
2018-11-20T08:01:01.509Z,0.50
2018-11-20T08:03:53.313Z,0.50
2018-11-20T08:06:42.175Z,0.50
2018-11-20T08:09:23.848Z,0.40
2018-11-20T08:13:59.192Z,0.50
2018-11-20T08:16:43.184Z,0.50
2018-11-20T08:19:31.549Z,0.40
2018-11-20T08:22:37.879Z,0.40
2018-11-20T08:25:28.766Z,0.40
2018-11-20T08:28:29.416Z,0.50
2018-11-20T08:31:32.496Z,0.40
2018-11-20T08:34:35.612Z,0.50
2018-11-20T08:37:22.338Z,0.40
2018-11-20T08:40:21.126Z,0.40
2018-11-20T08:43:03.851Z,0.40
2018-11-20T08:45:50.344Z,0.40
2018-11-20T08:48:36.562Z,0.40
2018-11-20T08:51:24.338Z,0.40
2018-11-20T08:54:17.752Z,0.40
2018-11-20T08:57:05.817Z,0.40
2018-11-20T08:59:53.318Z,0.50
2018-11-20T09:02:41.448Z,0.50
2018-11-20T09:05:47.582Z,0.50
2018-11-20T09:08:44.847Z,0.50
2018-11-20T09:11:31.054Z,0.60
2018-11-20T09:14:18.930Z,0.60
2018-11-20T09:17:06.528Z,0.60
2018-11-20T09:19:54.360Z,0.60
2018-11-20T09:22:41.140Z,0.60
2018-11-20T09:25:27.711Z,0.60
2018-11-20T09:28:13.818Z,0.70
2018-11-20T09:31:07.635Z,0.70
2018-11-20T09:33:54.045Z,0.70
2018-11-20T09:36:40.882Z,0.70
2018-11-20T09:39:34.141Z,0.70
2018-11-20T09:42:16.480Z,0.70
2018-11-20T09:45:57.400Z,0.70
2018-11-20T09:48:38.068Z,0.70
2018-11-20T09:51:24.796Z,0.70
2018-11-20T09:54:12.345Z,0.70
2018-11-20T09:56:58.760Z,0.70
2018-11-20T09:59:40.113Z,0.70
2018-11-20T10:02:26.978Z,0.80
2018-11-20T10:05:17.365Z,0.70
2018-11-20T10:08:05.386Z,0.80
2018-11-20T10:10:58.953Z,0.80
2018-11-20T10:13:52.321Z,0.80
2018-11-20T10:16:40.586Z,0.80
2018-11-20T10:19:36.191Z,0.70
2018-11-20T10:22:19.203Z,0.70
2018-11-20T10:25:05.644Z,0.70
2018-11-20T10:27:56.108Z,0.70
2018-11-20T10:30:47.084Z,0.70
2018-11-20T10:33:49.750Z,0.70
2018-11-20T10:36:40.108Z,0.70
2018-11-20T10:39:38.525Z,0.70
2018-11-20T10:42:22.244Z,0.70
2018-11-20T10:45:09.774Z,0.80
2018-11-20T10:47:57.755Z,0.80
2018-11-20T10:50:44.332Z,0.80
2018-11-20T10:53:25.476Z,0.70
2018-11-20T10:56:13.469Z,0.70
2018-11-20T10:58:59.952Z,0.80
2018-11-20T11:01:47.557Z,0.70
2018-11-20T11:04:33.031Z,0.70
2018-11-20T11:07:20.761Z,0.70
2018-11-20T11:09:57.717Z,0.70
2018-11-20T11:12:46.188Z,0.60
2018-11-20T11:15:42.595Z,0.60
2018-11-20T11:18:33.226Z,0.70
2018-11-20T11:21:19.434Z,0.70
2018-11-20T11:24:25.824Z,0.70
2018-11-20T11:27:17.266Z,0.70
2018-11-20T11:30:03.559Z,0.80
2018-11-20T11:32:47.314Z,0.80
2018-11-20T11:35:40.821Z,0.70
2018-11-20T11:38:26.016Z,0.70
2018-11-20T11:41:17.355Z,0.60
2018-11-20T11:44:04.934Z,0.60
2018-11-20T11:47:01.969Z,0.60
2018-11-20T11:49:57.997Z,0.60
2018-11-20T11:52:44.789Z,0.60
2018-11-20T11:55:31.721Z,0.70
2018-11-20T11:58:22.595Z,0.60
2018-11-20T12:01:13.287Z,0.50
2018-11-20T12:04:12.408Z,0.50
2018-11-20T12:07:12.529Z,0.60
2018-11-20T12:09:49.102Z,0.60
2018-11-20T12:12:42.475Z,0.50
2018-11-20T12:15:24.476Z,0.50
2018-11-20T12:18:21.680Z,0.50
2018-11-20T12:21:16.568Z,0.50
2018-11-20T12:24:12.912Z,0.50
2018-11-20T12:27:02.673Z,0.50
2018-11-20T12:29:47.917Z,0.50
2018-11-20T12:32:33.805Z,0.50
2018-11-20T12:35:33.269Z,0.50
2018-11-20T12:38:24.912Z,0.50
2018-11-20T12:41:21.652Z,0.50
2018-11-20T12:44:08.472Z,0.60
2018-11-20T12:47:09.296Z,0.60
2018-11-20T12:49:46.950Z,0.60
2018-11-20T12:52:34.275Z,0.60
2018-11-20T12:55:21.039Z,0.60
2018-11-20T12:58:11.643Z,0.50
2018-11-20T13:00:50.252Z,0.50
2018-11-20T13:03:55.927Z,0.40
2018-11-20T13:06:44.123Z,0.50
2018-11-20T13:09:44.111Z,0.50
2018-11-20T13:12:37.793Z,0.50
2018-11-20T13:15:26.845Z,0.50
2018-11-20T13:18:28.898Z,0.50
2018-11-20T13:21:07.287Z,0.50
2018-11-20T13:23:53.985Z,0.50
2018-11-20T13:26:42.019Z,0.50
2018-11-20T13:29:28.671Z,0.50
2018-11-20T13:32:18.984Z,0.50
2018-11-20T13:35:05.037Z,0.50
2018-11-20T13:38:13.679Z,0.50
2018-11-20T13:41:37.723Z,0.50
2018-11-20T13:44:16.553Z,0.50
2018-11-20T13:47:04.104Z,0.40
2018-11-20T13:49:49.807Z,0.50
2018-11-20T13:52:40.567Z,0.50
2018-11-20T13:55:28.510Z,0.40
2018-11-20T13:58:19.389Z,0.50
2018-11-20T14:01:03.278Z,0.40
2018-11-20T14:04:01.938Z,0.40
2018-11-20T14:06:49.421Z,0.40
2018-11-20T14:09:39.492Z,0.40
2018-11-20T14:12:42.603Z,0.40
2018-11-20T14:15:39.237Z,0.40
2018-11-20T14:18:36.175Z,0.40
2018-11-20T14:21:23.841Z,0.30
2018-11-20T14:24:20.660Z,0.40
2018-11-20T14:27:17.379Z,0.40
2018-11-20T14:30:04.098Z,0.40
2018-11-20T14:32:57.986Z,0.40
2018-11-20T14:35:44.454Z,0.40
2018-11-20T14:38:31.018Z,0.40
2018-11-20T14:41:21.484Z,0.40
2018-11-20T14:44:07.769Z,0.40
2018-11-20T14:46:54.727Z,0.40
2018-11-20T14:49:41.715Z,0.50
2018-11-20T14:52:21.405Z,0.50
2018-11-20T14:55:09.435Z,0.40
2018-11-20T14:57:55.901Z,0.40
2018-11-20T15:00:59.617Z,0.40
2018-11-20T15:03:48.815Z,0.40
2018-11-20T15:06:46.511Z,0.40
2018-11-20T15:09:42.974Z,0.40
2018-11-20T15:12:31.627Z,0.40
2018-11-20T15:15:12.472Z,0.40
2018-11-20T15:17:51.564Z,0.40
2018-11-20T15:20:38.334Z,0.30
2018-11-20T15:23:24.205Z,0.30
2018-11-20T15:26:12.774Z,0.40
2018-11-20T15:29:03.505Z,0.40
2018-11-20T15:32:09.509Z,0.40
2018-11-20T15:34:46.630Z,0.30
2018-11-20T15:37:33.442Z,0.40
2018-11-20T15:40:20.050Z,0.40
2018-11-20T15:43:06.335Z,0.30
2018-11-20T15:45:52.506Z,0.30
2018-11-20T15:48:43.130Z,0.30
2018-11-20T15:51:31.645Z,0.30
2018-11-20T15:54:18.193Z,0.20
2018-11-20T15:57:14.721Z,0.20
2018-11-20T16:00:11.269Z,0.10
2018-11-20T16:03:06.415Z,0.20
2018-11-20T16:05:53.199Z,0.10
2018-11-20T16:08:56.475Z,0.20
2018-11-20T16:12:02.339Z,0.20
2018-11-20T16:14:48.497Z,0.20
2018-11-20T16:17:37.135Z,0.10
2018-11-20T16:20:33.550Z,0.10
2018-11-20T16:23:25.274Z,0.20
2018-11-20T16:26:31.820Z,0.20
2018-11-20T16:29:18.733Z,0.20
2018-11-20T16:32:05.589Z,0.20
2018-11-20T16:34:53.232Z,0.10
2018-11-20T16:37:39.906Z,0.10
2018-11-20T16:40:28.037Z,0.20
2018-11-20T16:43:14.777Z,0.20
2018-11-20T16:46:14.545Z,0.10
2018-11-20T16:49:05.821Z,0.10
2018-11-20T16:51:52.583Z,0.10
2018-11-20T16:54:38.937Z,0.10
2018-11-20T16:57:26.582Z,0.10
2018-11-20T17:00:28.463Z,0.10
2018-11-20T17:03:28.640Z,0.10
2018-11-20T17:06:16.676Z,0.10
2018-11-20T17:09:03.293Z,0.10
2018-11-20T17:11:49.809Z,0.10
2018-11-20T17:14:37.228Z,0.10
2018-11-20T17:17:24.688Z,0.10
2018-11-20T17:20:27.424Z,0.10
2018-11-20T17:23:34.054Z,0.10
2018-11-20T17:26:33.479Z,0.10
2018-11-20T17:29:20.024Z,0.20
2018-11-20T17:32:06.629Z,0.20
2018-11-20T17:34:53.187Z,0.20
2018-11-20T17:37:40.199Z,0.20
2018-11-20T17:40:29.427Z,0.20
2018-11-20T17:43:35.677Z,0.20
2018-11-20T17:46:38.467Z,0.20
2018-11-20T17:49:25.333Z,0.20
2018-11-20T17:52:11.691Z,0.20
2018-11-20T17:54:47.541Z,0.20
2018-11-20T17:57:33.734Z,0.20
2018-11-20T18:00:21.853Z,0.30
2018-11-20T18:03:12.737Z,0.20
2018-11-20T18:06:12.334Z,0.20
2018-11-20T18:08:59.056Z,0.20
2018-11-20T18:11:52.477Z,0.20
2018-11-20T18:14:39.613Z,0.20
2018-11-20T18:17:39.424Z,0.20
2018-11-20T18:20:22.470Z,0.20
2018-11-20T18:23:11.483Z,0.20
2018-11-20T18:25:58.080Z,0.20
2018-11-20T18:28:51.941Z,0.20
2018-11-20T18:31:35.925Z,0.20
2018-11-20T18:34:21.645Z,0.30
2018-11-20T18:37:27.568Z,0.20
2018-11-20T18:40:13.825Z,0.30
2018-11-20T18:43:01.175Z,0.20
2018-11-20T18:45:42.883Z,0.30
2018-11-20T18:48:36.763Z,0.30
2018-11-20T18:51:23.902Z,0.30
2018-11-20T18:54:26.971Z,0.30
2018-11-20T18:57:22.289Z,0.30
2018-11-20T19:00:08.665Z,0.30
2018-11-20T19:03:06.133Z,0.40
2018-11-20T19:05:54.371Z,0.40
2018-11-20T19:08:41.127Z,0.40
2018-11-20T19:11:38.162Z,0.40
2018-11-20T19:14:35.376Z,0.40
2018-11-20T19:17:23.611Z,0.40
2018-11-20T19:20:14.413Z,0.40
2018-11-20T19:23:21.458Z,0.40
2018-11-20T19:26:08.048Z,0.40
2018-11-20T19:28:54.726Z,0.50
2018-11-20T19:31:42.135Z,0.50
2018-11-20T19:34:23.875Z,0.50
2018-11-20T19:37:25.552Z,0.50
2018-11-20T19:40:12.237Z,0.50
2018-11-20T19:43:03.246Z,0.50
2018-11-20T19:45:50.274Z,0.50
2018-11-20T19:48:31.712Z,0.50
2018-11-20T19:51:19.871Z,0.50
2018-11-20T19:54:08.013Z,0.50
2018-11-20T19:57:05.342Z,0.50
2018-11-20T20:00:00.050Z,0.50
2018-11-20T20:03:02.867Z,0.50
2018-11-20T20:05:49.748Z,0.50
2018-11-20T20:08:42.138Z,0.50
2018-11-20T20:11:23.237Z,0.50
2018-11-20T20:14:10.884Z,0.50
2018-11-20T20:16:55.872Z,0.50
2018-11-20T20:19:42.425Z,0.50
2018-11-20T20:22:29.240Z,0.50
2018-11-20T20:25:16.019Z,0.50
2018-11-20T20:28:06.502Z,0.50
2018-11-20T20:30:57.024Z,0.50
2018-11-20T20:33:43.687Z,0.50
2018-11-20T20:36:34.924Z,0.50
2018-11-20T20:39:24.548Z,0.50
2018-11-20T20:42:25.206Z,0.50
2018-11-20T20:45:12.885Z,0.50
2018-11-20T20:48:18.989Z,0.50
2018-11-20T20:51:05.976Z,0.50
2018-11-20T20:54:06.757Z,0.50
2018-11-20T20:56:53.416Z,0.40
2018-11-20T21:00:00.115Z,0.40
2018-11-20T21:02:59.850Z,0.40
2018-11-20T21:06:02.765Z,0.40
2018-11-20T21:09:02.376Z,0.40
2018-11-20T21:11:50.620Z,0.30
2018-11-20T21:14:47.633Z,0.40
2018-11-20T21:17:41.950Z,0.40
2018-11-20T21:20:41.778Z,0.40
2018-11-20T21:23:28.793Z,0.40
2018-11-20T21:26:15.644Z,0.40
2018-11-20T21:29:02.871Z,0.30
2018-11-20T21:31:50.604Z,0.40
2018-11-20T21:34:55.180Z,0.40
2018-11-20T21:37:46.962Z,0.40
2018-11-20T21:40:41.539Z,0.40
2018-11-20T21:43:28.373Z,0.40
2018-11-20T21:46:29.707Z,0.40
2018-11-20T21:49:16.578Z,0.40
2018-11-20T21:52:07.579Z,0.30
2018-11-20T21:54:59.269Z,0.40
2018-11-20T21:57:46.908Z,0.40
2018-11-20T22:00:37.432Z,0.40
2018-11-20T22:03:20.666Z,0.30
2018-11-20T22:06:07.432Z,0.30
2018-11-20T22:09:08.104Z,0.30
2018-11-20T22:11:56.077Z,0.30
2018-11-20T22:14:46.877Z,0.30
2018-11-20T22:17:34.551Z,0.30
2018-11-20T22:20:21.210Z,0.40
2018-11-20T22:23:00.562Z,0.40
2018-11-20T22:25:47.132Z,0.30
2018-11-20T22:28:41.150Z,0.40
2018-11-20T22:31:28.826Z,0.40
2018-11-20T22:34:16.574Z,0.40
2018-11-20T22:37:22.871Z,0.30
2018-11-20T22:40:19.438Z,0.40
2018-11-20T22:43:00.442Z,0.40
2018-11-20T22:45:48.786Z,0.30
2018-11-20T22:48:42.279Z,0.40
2018-11-20T22:51:36.409Z,0.40
2018-11-20T22:54:36.700Z,0.40
2018-11-20T22:57:30.724Z,0.40
2018-11-20T23:00:17.830Z,0.40
2018-11-20T23:03:08.206Z,0.40
2018-11-20T23:05:53.193Z,0.40
2018-11-20T23:08:22.115Z,0.30
2018-11-20T23:10:51.101Z,0.40
2018-11-20T23:13:20.811Z,0.30
2018-11-20T23:15:49.281Z,0.30
2018-11-20T23:18:18.510Z,0.30
2018-11-20T23:20:47.141Z,0.30
2018-11-20T23:23:16.890Z,0.40
2018-11-20T23:25:45.449Z,0.40
2018-11-20T23:28:14.930Z,0.40
2018-11-20T23:30:44.262Z,0.30
2018-11-20T23:33:12.733Z,0.40
2018-11-20T23:35:41.752Z,0.30
2018-11-20T23:38:10.339Z,0.30
2018-11-20T23:40:39.632Z,0.30
2018-11-20T23:43:08.483Z,0.30
2018-11-20T23:45:37.513Z,0.30
2018-11-20T23:48:06.063Z,0.30
2018-11-20T23:50:35.005Z,0.30
2018-11-20T23:53:03.487Z,0.30
2018-11-20T23:55:31.963Z,0.30
2018-11-20T23:58:00.838Z,0.30
